Bowbells, North Dakota
Current Conditions -  °F | °C
As of 2:15 PM on Wednesday 28 Jan 2015 (Local Time) from K08D Reporting Station
Haze Haze  
Wind Chill: 15°   Ceiling: 600
Heat Index: 28°   Visibility: 5mi
Dew Point: 28°   Wind: 22mph
Humidity: 100%   Direction: 330°NNW
Pressure: 29.95"   Gusts: 31mph
Location:  48.8°N, 102.25°W
Report Text: K08D 282015Z AUTO 33019G27KT 5SM BR OVC006 M02/M02 A2995 RMK AO2
Loading
Personal Weather Stations






























Interactive Weather Map New forecast layout! Learn more

10-Day Weather Forecast

Advertisements
Track Severe Weather on mobile